Time;durP1;ratioP1;P1;durP2;ratioP2;P2;SDS_P1;SDS_P2;PMS_P1;PMS_P2;Temp;Humidity;BMP_temperature;BMP_pressure;BME280_temperature;BME280_humidity;BME280_pressure;Samples;Min_cycle;Max_cycle;Signal;HPM_P1;HPM_P2
2024/02/15 00:00:16;;;;;;;0.73;0.57;;;;;;;37.44;29.54;99038.16;7395633;19;20033;-52
2024/02/15 00:02:44;;;;;;;2.70;0.90;;;;;;;37.56;29.17;99039.22;7392920;19;20019;-52
2024/02/15 00:05:11;;;;;;;0.15;0.15;;;;;;;37.56;29.26;99033.41;7398930;19;20043;-52
2024/02/15 00:07:38;;;;;;;3.35;0.95;;;;;;;37.42;29.25;99021.41;7400380;19;20459;-52
2024/02/15 00:10:05;;;;;;;0.20;0.10;;;;;;;37.31;29.64;99024.69;7399516;19;20066;-52
2024/02/15 00:12:31;;;;;;;0.28;0.13;;;;;;;37.37;29.63;99021.97;7403337;19;20014;-52
2024/02/15 00:14:58;;;;;;;0.73;0.30;;;;;;;37.30;29.72;99017.41;7399687;19;20007;-52
2024/02/15 00:17:25;;;;;;;1.85;0.57;;;;;;;37.29;29.46;99015.94;7400175;19;20007;-52
2024/02/15 00:19:51;;;;;;;2.88;0.50;;;;;;;37.61;29.26;99011.00;7400814;19;20046;-52
2024/02/15 00:22:19;;;;;;;6.25;1.20;;;;;;;37.31;29.48;99001.47;7403064;19;20045;-52
2024/02/15 00:24:45;;;;;;;1.42;0.20;;;;;;;37.25;29.30;98999.16;7397647;19;20455;-52
2024/02/15 00:27:11;;;;;;;0.63;0.35;;;;;;;37.06;29.61;99000.78;7398974;19;20513;-52
2024/02/15 00:29:37;;;;;;;1.10;0.63;;;;;;;37.04;29.60;99002.91;7400965;19;20007;-53
2024/02/15 00:32:05;;;;;;;0.50;0.20;;;;;;;37.54;29.51;98995.56;7398216;19;20036;-52
2024/02/15 00:34:32;;;;;;;1.35;0.15;;;;;;;37.38;29.61;99000.22;7401860;19;20010;-53
2024/02/15 00:36:58;;;;;;;0.85;0.35;;;;;;;38.42;28.55;99002.84;7399428;19;20031;-53
2024/02/15 00:39:24;;;;;;;8.38;0.80;;;;;;;37.97;28.84;99006.13;7401517;19;20390;-53
2024/02/15 00:41:50;;;;;;;1.60;0.57;;;;;;;38.55;28.57;98998.06;7397999;19;20026;-53
2024/02/15 00:44:17;;;;;;;0.95;0.35;;;;;;;37.60;28.77;99009.53;7403065;19;20458;-53
2024/02/15 00:46:43;;;;;;;5.15;0.30;;;;;;;37.23;29.50;99014.34;7399861;19;20474;-53
2024/02/15 00:49:10;;;;;;;1.35;0.45;;;;;;;37.25;29.42;99014.38;7395298;19;20029;-53
2024/02/15 00:51:37;;;;;;;1.30;0.30;;;;;;;37.12;29.34;99038.72;7401356;19;20340;-53
2024/02/15 00:54:03;;;;;;;4.07;0.52;;;;;;;38.40;28.38;99039.91;7397210;19;20033;-53
2024/02/15 00:56:30;;;;;;;0.82;0.40;;;;;;;36.85;29.90;99045.16;7396666;19;20007;-53
2024/02/15 00:58:57;;;;;;;3.75;0.68;;;;;;;37.16;29.76;99038.09;7400679;19;20482;-53
2024/02/15 01:01:23;;;;;;;1.58;0.70;;;;;;;37.42;29.63;99032.28;7397805;19;20058;-53
2024/02/15 01:03:49;;;;;;;5.05;0.88;;;;;;;37.58;29.20;99029.81;7400708;19;20006;-53
2024/02/15 01:06:15;;;;;;;4.88;1.02;;;;;;;37.56;29.32;99023.94;7397715;19;20074;-53
2024/02/15 01:08:41;;;;;;;4.80;1.13;;;;;;;38.06;29.12;99015.78;7399764;19;20015;-53
2024/02/15 01:11:09;;;;;;;1.52;0.30;;;;;;;37.96;29.19;99025.00;7396490;19;20018;-53
2024/02/15 01:13:35;;;;;;;2.45;1.15;;;;;;;38.01;28.77;99020.75;7399942;19;20455;-53
2024/02/15 01:16:04;;;;;;;8.52;0.88;;;;;;;37.98;29.31;99030.88;7395340;19;20006;-53
2024/02/15 01:18:31;;;;;;;1.35;0.50;;;;;;;39.07;28.16;99018.81;7398086;19;20010;-53
2024/02/15 01:20:58;;;;;;;4.60;1.10;;;;;;;40.85;26.53;99026.22;7397838;19;20018;-53
2024/02/15 01:23:25;;;;;;;2.95;0.77;;;;;;;40.19;27.03;99039.84;7397840;19;20022;-54
2024/02/15 01:25:52;;;;;;;9.65;1.23;;;;;;;38.25;28.37;99041.72;7396456;19;20011;-53
2024/02/15 01:28:19;;;;;;;3.15;0.70;;;;;;;37.71;29.16;99037.41;7399079;19;20003;-53
2024/02/15 01:30:45;;;;;;;1.10;0.68;;;;;;;38.41;28.99;99035.56;7400358;19;20122;-53
2024/02/15 01:33:12;;;;;;;2.70;0.80;;;;;;;37.57;29.51;99034.16;7398354;19;20486;-53
2024/02/15 01:35:38;;;;;;;1.92;0.50;;;;;;;38.08;29.34;99028.22;7395555;19;20042;-53
2024/02/15 01:38:05;;;;;;;2.13;0.93;;;;;;;37.81;28.95;99017.38;7396140;19;20029;-53
2024/02/15 01:40:32;;;;;;;0.80;0.50;;;;;;;37.59;29.24;99025.47;7396946;19;20003;-53
2024/02/15 01:43:00;;;;;;;4.72;0.65;;;;;;;37.43;29.31;99022.13;7396547;19;20348;-53
2024/02/15 01:45:28;;;;;;;4.60;0.90;;;;;;;37.44;29.58;99033.09;7396755;19;20018;-53
2024/02/15 01:47:54;;;;;;;2.65;0.40;;;;;;;37.90;29.12;99027.78;7396370;19;20014;-53
2024/02/15 01:50:22;;;;;;;1.63;0.90;;;;;;;38.35;29.03;99039.06;7395883;19;20378;-53
2024/02/15 01:52:51;;;;;;;2.63;1.10;;;;;;;39.06;28.04;99037.72;7396972;19;20340;-53
2024/02/15 01:55:18;;;;;;;1.90;0.65;;;;;;;37.89;29.04;99038.66;7394757;19;20018;-53
2024/02/15 01:57:47;;;;;;;1.83;1.00;;;;;;;37.76;29.32;99033.94;7396777;19;20086;-54
2024/02/15 02:00:17;;;;;;;1.55;0.60;;;;;;;37.67;29.41;99032.25;7396927;19;20017;-53
2024/02/15 02:02:44;;;;;;;5.40;0.90;;;;;;;37.85;29.17;99029.84;7394623;19;20010;-53
2024/02/15 02:05:11;;;;;;;5.80;0.30;;;;;;;37.88;28.95;99033.53;7396927;19;20023;-53
2024/02/15 02:07:37;;;;;;;2.45;0.35;;;;;;;37.48;29.34;99029.53;7395328;19;20078;-53
2024/02/15 02:10:05;;;;;;;1.23;0.55;;;;;;;37.41;29.46;99022.09;7395764;19;20018;-53
2024/02/15 02:12:32;;;;;;;0.47;0.22;;;;;;;37.11;29.93;99024.88;7396691;19;20036;-53
2024/02/15 02:14:58;;;;;;;2.72;0.73;;;;;;;37.32;29.84;99012.38;7396390;19;20017;-53
2024/02/15 02:17:24;;;;;;;8.30;0.95;;;;;;;37.17;30.16;98999.66;7394766;19;20135;-54
2024/02/15 02:19:51;;;;;;;1.65;0.50;;;;;;;37.25;29.90;98999.16;7394516;19;20481;-53
2024/02/15 02:22:18;;;;;;;1.40;0.30;;;;;;;37.27;29.56;98999.19;7396891;19;20038;-53
2024/02/15 02:24:57;;;;;;;1.05;0.73;;;;;;;37.42;29.77;99003.25;7397794;19;20066;-53
2024/02/15 02:27:27;;;;;;;1.00;0.28;;;;;;;37.35;29.80;99019.03;7392691;19;20348;-53
2024/02/15 02:29:54;;;;;;;1.15;0.50;;;;;;;37.44;29.65;99009.84;7397081;19;20033;-53
2024/02/15 02:32:21;;;;;;;1.85;0.30;;;;;;;38.81;28.15;99006.63;7394012;19;20018;-53
2024/02/15 02:34:47;;;;;;;1.88;0.50;;;;;;;38.44;28.64;99008.72;7397453;19;20007;-53
2024/02/15 02:37:13;;;;;;;1.55;0.80;;;;;;;37.73;29.03;99005.50;7392101;19;20042;-53
2024/02/15 02:39:39;;;;;;;3.80;1.05;;;;;;;37.53;29.16;99005.00;7395701;19;20017;-53
2024/02/15 02:42:06;;;;;;;1.02;0.20;;;;;;;37.40;29.44;98997.38;7392919;19;20015;-53
2024/02/15 02:44:32;;;;;;;1.20;0.55;;;;;;;37.44;29.30;98991.66;7395544;19;20066;-53
2024/02/15 02:46:58;;;;;;;3.00;0.65;;;;;;;37.43;29.23;98996.00;7394888;19;20011;-53
2024/02/15 02:49:24;;;;;;;2.25;0.85;;;;;;;37.57;29.16;98990.56;7398059;19;20014;-53
2024/02/15 02:51:50;;;;;;;2.05;1.10;;;;;;;37.42;29.39;98989.47;7394677;19;20015;-53
2024/02/15 02:54:17;;;;;;;3.63;0.50;;;;;;;38.56;28.42;98987.88;7395170;19;20014;-54
2024/02/15 02:56:45;;;;;;;0.70;0.60;;;;;;;38.99;27.73;98986.59;7394177;19;20014;-53
2024/02/15 02:59:11;;;;;;;7.10;1.45;;;;;;;38.24;28.48;98979.16;7393307;19;20018;-53
2024/02/15 03:01:39;;;;;;;2.15;0.93;;;;;;;37.44;28.99;98980.03;7394117;19;20018;-53
2024/02/15 03:04:05;;;;;;;2.35;0.70;;;;;;;37.53;29.02;98965.06;7397202;19;20047;-53
2024/02/15 03:06:32;;;;;;;0.55;0.50;;;;;;;37.42;29.31;98965.47;7394891;19;20022;-53
2024/02/15 03:08:58;;;;;;;8.27;2.05;;;;;;;37.57;28.90;98973.13;7397092;19;20014;-53
2024/02/15 03:11:24;;;;;;;2.05;0.65;;;;;;;38.81;28.40;98968.78;7393910;19;20519;-53
2024/02/15 03:13:50;;;;;;;2.20;0.32;;;;;;;38.94;27.78;98964.66;7393217;19;20009;-53
2024/02/15 03:16:16;;;;;;;1.40;0.30;;;;;;;38.91;28.18;98968.97;7396803;19;20010;-53
2024/02/15 03:18:43;;;;;;;2.58;0.68;;;;;;;39.76;27.05;98960.38;7393108;19;20020;-53
2024/02/15 03:21:10;;;;;;;0.60;0.10;;;;;;;39.95;27.23;98958.47;7394308;19;20043;-53
2024/02/15 03:23:37;;;;;;;3.00;0.52;;;;;;;38.05;28.58;98954.00;7394196;19;20047;-53
2024/02/15 03:26:03;;;;;;;3.08;1.10;;;;;;;37.61;29.03;98959.44;7393724;19;20030;-53
2024/02/15 03:28:29;;;;;;;2.78;0.60;;;;;;;37.54;29.29;98954.16;7396487;19;20018;-53
2024/02/15 03:30:56;;;;;;;0.95;0.57;;;;;;;37.76;28.95;98951.78;7392172;19;20351;-53
2024/02/15 03:33:26;;;;;;;5.50;0.55;;;;;;;38.01;28.64;98953.88;7393831;19;20022;-53
2024/02/15 03:35:52;;;;;;;1.67;0.63;;;;;;;37.75;28.95;98950.34;7393542;19;20022;-53
2024/02/15 03:38:18;;;;;;;0.93;0.40;;;;;;;37.07;29.70;98950.00;7391295;19;20075;-52
2024/02/15 03:40:44;;;;;;;2.97;0.70;;;;;;;36.79;29.87;98949.22;7395997;19;20021;-53
2024/02/15 03:43:10;;;;;;;0.82;0.60;;;;;;;38.63;28.36;98952.38;7393815;19;20011;-52
2024/02/15 03:45:37;;;;;;;2.90;0.68;;;;;;;39.90;27.17;98942.34;7392271;19;20474;-53
2024/02/15 03:48:05;;;;;;;2.28;0.47;;;;;;;40.63;26.86;98947.09;7393148;19;20011;-53
2024/02/15 03:50:32;;;;;;;2.15;0.60;;;;;;;40.63;26.46;98935.41;7393034;19;20088;-52
2024/02/15 03:52:59;;;;;;;0.35;0.22;;;;;;;39.16;27.73;98930.13;7396835;19;20459;-52
2024/02/15 03:55:25;;;;;;;3.15;0.25;;;;;;;37.33;28.94;98928.88;7392690;19;20368;-52
2024/02/15 03:57:52;;;;;;;1.27;0.82;;;;;;;36.87;29.78;98926.19;7392091;19;20066;-52
2024/02/15 04:00:20;;;;;;;1.42;0.57;;;;;;;36.90;29.68;98930.69;7396279;19;20447;-52
2024/02/15 04:02:49;;;;;;;3.13;1.38;;;;;;;38.23;28.71;98915.81;7395552;19;20014;-52
2024/02/15 04:05:18;;;;;;;1.48;0.35;;;;;;;36.93;29.70;98920.59;7392275;19;20357;-52
2024/02/15 04:07:44;;;;;;;1.83;0.70;;;;;;;37.44;29.49;98910.31;7392065;19;20015;-52
2024/02/15 04:10:11;;;;;;;2.25;0.68;;;;;;;37.03;29.76;98911.41;7393059;19;20015;-52
2024/02/15 04:12:37;;;;;;;2.47;0.68;;;;;;;37.07;29.56;98915.16;7392220;19;20007;-52
2024/02/15 04:15:11;;;;;;;2.35;0.65;;;;;;;37.90;29.08;98909.28;7396819;19;20015;-52
2024/02/15 04:17:38;;;;;;;1.73;0.50;;;;;;;38.16;28.71;98917.88;7392180;19;20062;-52
2024/02/15 04:20:06;;;;;;;7.80;0.95;;;;;;;38.22;28.47;98920.19;7392794;19;20048;-52
2024/02/15 04:22:36;;;;;;;0.70;0.35;;;;;;;37.00;29.37;98919.31;7392664;19;20011;-52
2024/02/15 04:25:05;;;;;;;3.33;1.05;;;;;;;38.65;28.30;98908.00;7391735;19;20112;-52
2024/02/15 04:27:33;;;;;;;2.90;0.73;;;;;;;38.88;27.74;98917.97;7396612;19;20470;-52
2024/02/15 04:29:59;;;;;;;1.83;0.30;;;;;;;38.84;27.81;98912.03;7394259;19;20075;-52
2024/02/15 04:32:25;;;;;;;0.50;0.30;;;;;;;38.80;28.20;98903.97;7392328;19;20413;-52
2024/02/15 04:34:52;;;;;;;2.63;1.05;;;;;;;39.79;27.00;98903.56;7392227;19;20011;-52
2024/02/15 04:37:18;;;;;;;2.15;0.65;;;;;;;39.83;26.92;98903.59;7392216;19;20029;-52
2024/02/15 04:39:46;;;;;;;0.30;0.10;;;;;;;39.82;27.24;98893.41;7396315;19;20039;-52
2024/02/15 04:42:12;;;;;;;1.33;0.93;;;;;;;39.80;27.28;98895.53;7390722;19;20060;-52
2024/02/15 04:44:39;;;;;;;0.85;0.63;;;;;;;39.61;26.98;98891.63;7390946;19;20170;-52
2024/02/15 04:47:06;;;;;;;0.43;0.40;;;;;;;39.80;27.02;98889.72;7391832;19;20482;-52
2024/02/15 04:49:32;;;;;;;0.38;0.20;;;;;;;39.15;27.57;98887.91;7391778;19;20014;-52
2024/02/15 04:52:01;;;;;;;3.08;0.98;;;;;;;38.23;28.28;98886.72;7403885;19;20014;-53
2024/02/15 04:54:29;;;;;;;0.60;0.20;;;;;;;37.26;29.12;98896.03;7399034;19;20015;-52
2024/02/15 04:56:56;;;;;;;0.47;0.20;;;;;;;36.75;29.47;98888.16;7399716;19;20032;-52
2024/02/15 04:59:25;;;;;;;7.63;0.47;;;;;;;36.47;29.49;98879.38;7398307;19;20011;-53
2024/02/15 05:01:56;;;;;;;1.85;0.40;;;;;;;36.99;29.38;98874.28;7400486;19;20007;-53
2024/02/15 05:04:24;;;;;;;1.02;0.38;;;;;;;36.28;29.98;98870.78;7398871;19;20014;-52
2024/02/15 05:06:50;;;;;;;0.75;0.45;;;;;;;36.26;30.23;98865.69;7398385;19;20455;-52
2024/02/15 05:09:18;;;;;;;0.30;0.10;;;;;;;36.25;29.93;98869.28;7402200;19;20021;-52
2024/02/15 05:11:48;;;;;;;1.08;0.00;;;;;;;36.15;30.30;98848.66;7400950;19;20037;-52
2024/02/15 05:14:19;;;;;;;1.60;0.55;;;;;;;36.55;29.75;98866.53;7399097;19;20530;-52
2024/02/15 05:16:48;;;;;;;2.05;0.28;;;;;;;36.06;30.25;98870.16;7398549;19;20015;-52
2024/02/15 05:19:16;;;;;;;0.60;0.30;;;;;;;35.98;30.46;98858.31;7395169;19;20015;-53
2024/02/15 05:21:45;;;;;;;1.92;0.77;;;;;;;36.02;30.43;98870.03;7398439;19;20014;-53
2024/02/15 05:24:16;;;;;;;2.08;0.40;;;;;;;38.00;28.66;98858.59;7401834;19;20019;-52
2024/02/15 05:26:46;;;;;;;2.28;0.68;;;;;;;37.06;29.61;98849.78;7398368;19;20023;-52
2024/02/15 05:29:13;;;;;;;0.68;0.20;;;;;;;36.67;29.89;98852.38;7399476;19;20029;-53
2024/02/15 05:31:39;;;;;;;0.57;0.22;;;;;;;36.79;29.93;98853.41;7402328;19;20014;-52
2024/02/15 05:34:08;;;;;;;1.13;0.15;;;;;;;36.71;29.80;98856.09;7401190;19;20006;-53
2024/02/15 05:36:34;;;;;;;1.92;0.25;;;;;;;36.67;30.04;98850.19;7397648;19;20010;-52
2024/02/15 05:39:02;;;;;;;3.05;0.77;;;;;;;36.76;29.95;98848.97;7394395;19;20043;-53
2024/02/15 05:41:29;;;;;;;2.92;0.50;;;;;;;36.20;30.39;98856.06;7397486;19;20010;-53
2024/02/15 05:43:57;;;;;;;4.28;0.85;;;;;;;36.26;30.27;98851.19;7397345;19;20015;-53
2024/02/15 05:46:24;;;;;;;0.10;0.10;;;;;;;36.10;30.50;98855.78;7400596;19;20026;-52
2024/02/15 05:48:51;;;;;;;1.13;0.43;;;;;;;36.08;30.46;98855.72;7396561;19;20046;-52
2024/02/15 05:51:17;;;;;;;1.02;0.28;;;;;;;35.97;30.64;98859.75;7396558;19;20014;-53
2024/02/15 05:53:43;;;;;;;2.80;0.52;;;;;;;36.00;30.83;98859.09;7396976;19;20014;-52
2024/02/15 05:56:10;;;;;;;3.88;1.05;;;;;;;36.09;30.97;98866.63;7396077;19;20011;-52
2024/02/15 05:58:36;;;;;;;0.40;0.35;;;;;;;36.25;30.88;98857.69;7397536;19;20021;-53
2024/02/15 06:01:06;;;;;;;3.17;0.25;;;;;;;36.16;30.81;98842.19;7396326;19;20018;-53
2024/02/15 06:03:34;;;;;;;0.30;0.30;;;;;;;36.10;31.18;98852.88;7395806;19;20010;-53
2024/02/15 06:06:02;;;;;;;1.65;0.30;;;;;;;36.76;30.23;98857.69;7397318;19;20070;-53
2024/02/15 06:08:32;;;;;;;2.45;0.93;;;;;;;37.98;29.43;98859.31;7395941;19;20014;-53
2024/02/15 06:10:59;;;;;;;0.20;0.10;;;;;;;36.57;30.53;98858.63;7399102;19;20018;-53
2024/02/15 06:13:26;;;;;;;0.65;0.63;;;;;;;36.41;30.76;98858.13;7396102;19;20258;-53
2024/02/15 06:15:53;;;;;;;0.30;0.10;;;;;;;36.29;31.01;98863.59;7396142;19;20195;-53
2024/02/15 06:18:28;;;;;;;2.30;0.52;;;;;;;37.40;29.82;98852.13;7394449;19;20014;-53
2024/02/15 06:20:57;;;;;;;0.60;0.20;;;;;;;37.91;29.32;98852.63;7395277;19;20006;-53
2024/02/15 06:23:23;;;;;;;1.10;0.35;;;;;;;38.51;28.91;98841.53;7400823;19;20335;-53
2024/02/15 06:25:54;;;;;;;0.45;0.20;;;;;;;38.24;28.83;98839.50;7396058;19;20019;-53
2024/02/15 06:39:38;;;;;;;0.50;0.10;;;;;;;41.18;26.44;98817.66;7395220;19;20018;-53
2024/02/15 06:42:04;;;;;;;1.75;0.57;;;;;;;40.97;26.83;98804.34;7395126;19;20040;-53
2024/02/15 06:44:30;;;;;;;0.85;0.45;;;;;;;39.86;27.19;98808.88;7397890;19;20018;-53
2024/02/15 06:46:56;;;;;;;0.47;0.10;;;;;;;39.72;27.57;98805.75;7395706;19;20015;-53
2024/02/15 06:49:26;;;;;;;0.40;0.20;;;;;;;39.64;27.76;98802.72;7395668;19;20011;-53
2024/02/15 06:51:52;;;;;;;0.10;0.00;;;;;;;39.56;27.58;98801.88;7393801;19;20033;-53
2024/02/15 06:54:18;;;;;;;6.85;0.43;;;;;;;38.57;28.37;98806.00;7395673;19;20014;-53
2024/02/15 06:56:47;;;;;;;2.05;0.85;;;;;;;38.48;28.32;98790.56;7394843;19;20014;-53
2024/02/15 06:59:14;;;;;;;1.60;0.40;;;;;;;38.39;28.39;98794.75;7394249;19;20498;-53
2024/02/15 07:01:43;;;;;;;0.93;0.20;;;;;;;38.62;28.13;98787.88;7393272;19;20372;-53
2024/02/15 07:04:12;;;;;;;1.90;0.10;;;;;;;39.08;28.10;98795.97;7394417;19;20045;-53
2024/02/15 07:06:39;;;;;;;0.20;0.10;;;;;;;39.32;27.76;98808.06;7397081;19;20357;-53
2024/02/15 07:09:06;;;;;;;0.85;0.45;;;;;;;40.41;26.76;98783.34;7395787;19;20022;-53
2024/02/15 07:11:35;;;;;;;10.10;0.97;;;;;;;39.67;27.42;98789.66;7392646;19;20018;-53
2024/02/15 07:14:02;;;;;;;0.32;0.20;;;;;;;39.64;27.31;98802.72;7392036;19;20031;-53
2024/02/15 07:16:29;;;;;;;0.40;0.10;;;;;;;39.97;27.28;98798.81;7392423;19;20078;-53
2024/02/15 07:18:55;;;;;;;0.20;0.10;;;;;;;40.67;26.55;98795.28;7394658;19;20022;-53
2024/02/15 07:21:26;;;;;;;0.22;0.17;;;;;;;41.17;26.60;98798.69;7393878;19;20066;-53
2024/02/15 07:23:55;;;;;;;0.88;0.45;;;;;;;41.24;26.17;98803.13;7394020;19;20006;-53
2024/02/15 07:26:24;;;;;;;2.85;0.32;;;;;;;40.83;26.48;98804.22;7393794;19;20019;-53
2024/02/15 07:28:54;;;;;;;0.82;0.57;;;;;;;40.91;26.48;98806.47;7393510;19;20424;-53
2024/02/15 07:31:24;;;;;;;1.25;0.25;;;;;;;40.13;26.88;98822.38;7396052;19;20022;-53
2024/02/15 07:33:55;;;;;;;2.92;0.90;;;;;;;39.97;26.91;98816.31;7393108;19;20013;-53
2024/02/15 07:36:23;;;;;;;1.63;0.80;;;;;;;39.91;27.13;98816.25;7393387;19;20070;-53
2024/02/15 07:38:50;;;;;;;0.77;0.10;;;;;;;40.16;27.04;98808.53;7392093;19;20011;-53
2024/02/15 07:41:22;;;;;;;1.60;0.30;;;;;;;39.98;27.31;98817.81;7393348;19;20014;-53
2024/02/15 07:43:49;;;;;;;3.67;0.63;;;;;;;39.94;26.89;98811.16;7396771;19;20017;-53
2024/02/15 07:46:16;;;;;;;0.03;0.03;;;;;;;39.82;27.41;98811.75;7391300;19;20349;-53
2024/02/15 07:48:46;;;;;;;3.83;0.90;;;;;;;40.05;26.81;98810.59;7392020;19;20062;-53
2024/02/15 07:51:14;;;;;;;0.57;0.40;;;;;;;40.13;27.24;98801.94;7393764;19;20026;-53
2024/02/15 07:53:42;;;;;;;2.97;0.35;;;;;;;39.76;27.79;98797.09;7393063;19;20462;-53
2024/02/15 07:56:10;;;;;;;2.65;0.75;;;;;;;39.84;27.36;98808.84;7397199;19;20038;-53
2024/02/15 07:58:46;;;;;;;2.25;0.47;;;;;;;40.01;26.99;98812.72;7392229;19;20031;-53
2024/02/15 08:01:20;;;;;;;1.33;0.28;;;;;;;39.93;27.47;98809.69;7392894;19;20033;-53
2024/02/15 08:03:48;;;;;;;2.05;0.50;;;;;;;40.06;27.11;98823.75;7392252;19;20015;-53
2024/02/15 08:06:16;;;;;;;2.35;0.50;;;;;;;39.66;27.51;98799.84;7392165;19;20015;-53
2024/02/15 08:08:45;;;;;;;3.28;0.30;;;;;;;39.32;28.19;98796.41;7396144;19;20343;-54
2024/02/15 08:11:15;;;;;;;0.52;0.30;;;;;;;39.34;27.92;98805.16;7392437;19;20018;-53
2024/02/15 08:13:49;;;;;;;0.50;0.08;;;;;;;39.24;28.07;98799.19;7392755;19;20011;-53
2024/02/15 08:16:21;;;;;;;1.20;0.52;;;;;;;39.74;27.97;98799.97;7393067;19;20018;-53
2024/02/15 08:18:48;;;;;;;1.65;0.68;;;;;;;40.42;27.47;98791.38;7391816;19;20067;-53
2024/02/15 08:21:14;;;;;;;0.52;0.40;;;;;;;40.07;27.14;98793.13;7391607;19;20043;-53
2024/02/15 08:23:40;;;;;;;3.55;0.55;;;;;;;40.07;27.88;98801.88;7392485;19;20032;-53
2024/02/15 08:26:06;;;;;;;5.25;0.93;;;;;;;40.29;27.18;98786.06;7398122;19;20015;-53
2024/02/15 08:28:33;;;;;;;4.10;0.32;;;;;;;40.35;27.33;98789.09;7400870;19;20074;-53
2024/02/15 08:30:59;;;;;;;1.65;0.60;;;;;;;40.22;27.71;98794.03;7399685;19;20014;-53
2024/02/15 08:33:28;;;;;;;1.05;0.10;;;;;;;40.18;27.71;98791.06;7400053;19;20010;-53
2024/02/15 08:35:57;;;;;;;0.32;0.15;;;;;;;39.82;27.68;98794.25;7399032;19;20069;-53
2024/02/15 08:38:23;;;;;;;2.17;1.23;;;;;;;39.86;28.01;98794.28;7397633;19;20010;-53
2024/02/15 08:40:50;;;;;;;3.05;0.60;;;;;;;40.42;27.73;98799.38;7398882;19;20043;-53
2024/02/15 08:43:16;;;;;;;1.98;0.77;;;;;;;40.30;27.42;98799.97;7399836;19;20614;-53
2024/02/15 08:45:43;;;;;;;2.83;0.52;;;;;;;40.52;27.29;98770.31;7399668;19;20017;-53
2024/02/15 08:48:10;;;;;;;3.35;0.75;;;;;;;40.35;27.66;98783.25;7399393;19;20062;-53
2024/02/15 08:50:36;;;;;;;3.22;0.60;;;;;;;40.45;27.59;98783.38;7403766;19;20017;-53
2024/02/15 08:53:06;;;;;;;2.85;0.90;;;;;;;40.46;27.52;98779.03;7399176;19;20019;-54
2024/02/15 08:55:35;;;;;;;1.17;0.45;;;;;;;40.61;27.73;98777.72;7398450;19;20017;-53
2024/02/15 08:58:02;;;;;;;2.60;0.38;;;;;;;40.54;27.70;98776.16;7398062;19;20015;-53
2024/02/15 09:00:29;;;;;;;1.73;1.05;;;;;;;40.57;27.81;98784.22;7402537;19;20011;-53
2024/02/15 09:02:57;;;;;;;1.63;0.50;;;;;;;40.21;28.16;98786.00;7398770;19;20018;-54
2024/02/15 09:05:23;;;;;;;0.95;0.43;;;;;;;40.39;27.85;98774.53;7399463;19;20455;-53
2024/02/15 09:07:50;;;;;;;0.88;0.15;;;;;;;40.34;27.99;98778.84;7400072;19;20007;-53
2024/02/15 09:10:17;;;;;;;1.83;0.73;;;;;;;40.13;28.20;98775.69;7401312;19;20025;-54
2024/02/15 09:12:46;;;;;;;0.63;0.22;;;;;;;40.13;28.25;98772.78;7398156;19;20045;-54
2024/02/15 09:15:14;;;;;;;0.47;0.20;;;;;;;40.08;28.11;98765.44;7397595;19;20026;-53
2024/02/15 09:17:41;;;;;;;3.17;0.40;;;;;;;40.11;28.26;98761.06;7396296;19;20010;-54
2024/02/15 09:20:14;;;;;;;3.03;0.65;;;;;;;40.09;28.20;98757.41;7398072;19;20010;-54
2024/02/15 09:22:54;;;;;;;2.75;0.50;;;;;;;40.19;28.20;98759.72;7402791;19;20482;-54
2024/02/15 09:25:24;;;;;;;0.10;0.10;;;;;;;40.36;28.03;98755.50;7394444;19;20450;-55
2024/02/15 09:27:53;;;;;;;0.20;0.05;;;;;;;40.43;28.16;98754.91;7394902;19;20011;-55
2024/02/15 09:30:20;;;;;;;4.03;0.57;;;;;;;40.16;28.53;98755.28;7397356;19;20011;-55
2024/02/15 09:32:46;;;;;;;1.13;0.28;;;;;;;41.13;27.87;98751.16;7395700;19;20010;-55
2024/02/15 09:35:13;;;;;;;2.08;0.20;;;;;;;40.26;27.87;98746.66;7395555;19;20495;-55
2024/02/15 09:37:45;;;;;;;2.08;0.55;;;;;;;40.19;28.11;98745.13;7389965;19;20018;-55
2024/02/15 09:40:13;;;;;;;0.50;0.00;;;;;;;40.25;28.42;98751.75;7395162;19;20006;-55
2024/02/15 09:42:39;;;;;;;3.58;1.02;;;;;;;40.25;27.98;98742.25;7395759;19;20024;-55
2024/02/15 09:45:06;;;;;;;3.30;0.10;;;;;;;40.28;28.16;98744.50;7399326;19;20015;-55
2024/02/15 09:47:37;;;;;;;1.35;0.00;;;;;;;40.32;28.20;98743.81;7395958;19;20018;-55
2024/02/15 09:50:16;;;;;;;0.30;0.30;;;;;;;40.31;28.04;98742.31;7395915;19;20062;-55
2024/02/15 09:52:49;;;;;;;0.95;0.43;;;;;;;40.26;28.12;98753.25;7392179;19;20010;-55
2024/02/15 09:55:17;;;;;;;0.90;0.55;;;;;;;40.27;27.92;98745.19;7395924;19;20389;-55
2024/02/15 09:57:44;;;;;;;3.63;0.22;;;;;;;40.21;28.34;98753.91;7393137;19;20442;-55
2024/02/15 10:00:15;;;;;;;0.70;0.43;;;;;;;40.31;28.46;98748.16;7397846;19;20014;-56
2024/02/15 10:02:44;;;;;;;9.55;0.70;;;;;;;41.00;27.82;98750.31;7396249;19;20489;-55
2024/02/15 10:05:11;;;;;;;2.15;0.30;;;;;;;41.49;27.65;98752.16;7394812;19;20037;-55
2024/02/15 10:07:41;;;;;;;1.27;0.22;;;;;;;41.40;27.58;98750.63;7399887;19;20010;-56
2024/02/15 10:10:26;;;;;;;2.83;0.70;;;;;;;41.74;27.58;98737.66;7396543;19;20019;-55
2024/02/15 10:12:54;;;;;;;5.15;0.98;;;;;;;42.07;26.92;98742.22;7395584;19;20078;-55
2024/02/15 10:15:43;;;;;;;5.22;0.65;;;;;;;41.25;27.65;98739.56;7396005;19;20030;-55
2024/02/15 10:18:11;;;;;;;1.50;0.70;;;;;;;41.92;27.64;98740.69;7395592;19;20073;-55
2024/02/15 10:20:39;;;;;;;2.38;0.57;;;;;;;42.67;26.72;98738.69;7395250;19;20010;-55
2024/02/15 10:23:08;;;;;;;5.93;0.77;;;;;;;42.51;26.47;98736.50;7396691;19;20037;-55
2024/02/15 10:25:35;;;;;;;3.88;0.98;;;;;;;41.97;26.66;98733.38;7395803;19;20376;-55
2024/02/15 10:28:08;;;;;;;10.55;1.65;;;;;;;41.32;27.08;98738.91;7395623;19;20019;-56
2024/02/15 10:30:45;;;;;;;3.70;0.68;;;;;;;40.93;27.94;98728.38;7399538;19;20091;-55
2024/02/15 10:33:28;;;;;;;3.00;1.05;;;;;;;40.95;27.88;98725.47;7392120;19;20058;-56
2024/02/15 10:36:08;;;;;;;0.50;0.38;;;;;;;41.06;27.87;98721.16;7390845;19;20017;-56
2024/02/15 10:38:35;;;;;;;1.70;0.63;;;;;;;41.16;28.02;98715.38;7390538;19;20022;-56
2024/02/15 10:41:06;;;;;;;2.22;0.65;;;;;;;41.06;27.77;98720.41;7393377;19;20424;-56
2024/02/15 10:43:33;;;;;;;5.05;0.98;;;;;;;40.93;27.98;98716.69;7395358;19;20007;-56
2024/02/15 10:46:00;;;;;;;1.95;0.60;;;;;;;41.11;28.05;98716.09;7394552;19;20014;-56
2024/02/15 10:48:29;;;;;;;8.10;0.95;;;;;;;41.36;27.46;98717.72;7391827;19;20011;-56
2024/02/15 10:51:03;;;;;;;0.57;0.15;;;;;;;41.10;27.94;98721.19;7394554;19;20014;-56
2024/02/15 10:53:32;;;;;;;2.97;0.52;;;;;;;41.66;27.72;98717.16;7392626;19;20007;-56
2024/02/15 10:56:23;;;;;;;1.92;0.60;;;;;;;41.38;27.60;98723.56;7394944;19;20014;-56
2024/02/15 10:59:22;;;;;;;1.10;0.20;;;;;;;42.18;27.13;98717.38;7391603;19;20114;-56
2024/02/15 11:01:55;;;;;;;1.35;0.47;;;;;;;42.40;27.00;98714.50;7390981;19;20010;-56
2024/02/15 11:04:22;;;;;;;0.10;0.10;;;;;;;42.60;26.73;98702.09;7391555;19;20024;-56
2024/02/15 11:06:50;;;;;;;6.63;0.73;;;;;;;42.65;26.75;98709.41;7390813;19;20010;-56
2024/02/15 11:09:17;;;;;;;2.03;0.60;;;;;;;43.12;26.59;98707.22;7395268;19;20458;-56
2024/02/15 11:11:49;;;;;;;0.80;0.32;;;;;;;42.10;27.02;98708.59;7393134;19;20434;-56
2024/02/15 11:14:23;;;;;;;0.68;0.30;;;;;;;41.34;27.75;98700.91;7394580;19;20014;-56
2024/02/15 11:16:50;;;;;;;6.32;0.30;;;;;;;41.26;27.86;98700.84;7393901;19;20033;-56
2024/02/15 11:19:40;;;;;;;0.20;0.15;;;;;;;40.89;27.98;98704.97;7394414;19;20350;-56
2024/02/15 11:22:11;;;;;;;7.03;0.45;;;;;;;40.65;28.36;98699.63;7393955;19;20013;-56
2024/02/15 11:24:46;;;;;;;1.17;0.30;;;;;;;40.58;28.25;98695.19;7394991;19;20015;-56
2024/02/15 11:27:26;;;;;;;1.60;0.40;;;;;;;41.53;28.14;98696.63;7392875;19;20026;-56
2024/02/15 11:30:02;;;;;;;0.28;0.20;;;;;;;41.83;27.40;98692.38;7396487;19;20030;-56
2024/02/15 11:32:36;;;;;;;2.83;0.47;;;;;;;41.42;27.79;98689.25;7392151;19;20033;-56
2024/02/15 11:35:10;;;;;;;4.88;0.57;;;;;;;41.18;28.09;98679.56;7394115;19;20383;-56
2024/02/15 11:37:52;;;;;;;2.20;0.22;;;;;;;41.15;27.85;98678.81;7393510;19;20006;-56
2024/02/15 11:40:29;;;;;;;1.05;0.20;;;;;;;40.83;28.07;98684.47;7397030;19;20039;-57
2024/02/15 11:43:00;;;;;;;1.48;0.30;;;;;;;40.41;28.37;98687.00;7392866;19;20010;-57
2024/02/15 11:45:33;;;;;;;0.65;0.30;;;;;;;39.69;28.76;98670.16;7393963;19;20074;-56
2024/02/15 11:48:00;;;;;;;0.20;0.13;;;;;;;39.58;28.87;98671.47;7393273;19;20010;-56
2024/02/15 11:50:39;;;;;;;2.40;0.40;;;;;;;39.64;29.29;98676.63;7395134;19;20018;-56